Warrendale, Pennsylvania
Current Conditions -  °F | °C
As of 2:15 PM on Saturday 25 Oct 2014 (Local Time) from KBTP Reporting Station
Overcast Overcast  
Wind Chill: 64°   Ceiling: 4600
Heat Index: 64°   Visibility: 10mi
Dew Point: 48°   Wind: 14mph
Humidity: 56%   Direction: 230°SW
Pressure: 29.81"   Gusts: 25mph
Location:  40.65°N, 80.08°W
Report Text: KBTP 251815Z AUTO 23012G22KT 10SM BKN046 BKN055 OVC065 18/09 A2981 RMK AO1
Loading
Personal Weather Stations






























Interactive Weather Map
Tropical Storm Tracking
New forecast layout! Learn more

10-Day Weather Forecast

Advertisements
Track Severe Weather on mobile